Lyons, NY

1:50 AM EST on November 29, 2014 (GMT -0500)
Lyons | Change Station
CLOSE
Current Station
Personal Weather Station
Location: Lyons, NY
Elevation: 503 ft
Nearby Weather Stations

Elev 503 ft 43.14 °N, 77.00 °W | Updated 9 seconds ago

Overcast
Overcast
23.7 °F
Feels Like 24 °F
N
0.0
Wind Variable Wind from SSE
Gusts 0.0 mph

Today
High -- | Low -- °F
--% Chance of Precip.
Yesterday
High -- | Low -- °F
Precip. -- in
7:17 AM 4:34 PM
Waxing Crescent, 48% visible
Pressure 30.25 in
Visibility 10.0 miles
Clouds Mostly Cloudy 3800 ft
Overcast 11000 ft
Windchill 24 °F
Dew Point 20 °F
Humidity 86%
Rainfall 0.00 in
Snow Depth Not available.
UV 0 out of 12
Pollen .10 out of 12
Air Quality Not available.
Flu Activity Not available.
METAR KPEO 290553Z AUTO 21006KT 10SM BKN038 OVC110 M04/M10 A3020 RMK AO2 SLP243 T10441100 11039 21044 53002

More Conditions Fewer Conditions

Pressure 30.25 in
Visibility 10.0 miles
Clouds Mostly Cloudy 3800 ft
Overcast 11000 ft
Windchill 24 °F
Dew Point 20 °F
Humidity 86%
Rainfall 0.00 in
Snow Depth Not available.
UV 0 out of 12
Pollen .10 out of 12
Air Quality Not available.
Flu Activity Not available.
METAR KPEO 290553Z AUTO 21006KT 10SM BKN038 OVC110 M04/M10 A3020 RMK AO2 SLP243 T10441100 11039 21044 53002

More Conditions Fewer Conditions

10-Day Weather Forecast

Almanac

Astronomy

Nov. 29, 2014 Rise Set
Actual Time
Civil Twilight
Nautical Twilight
Astronomical Twilight
Moon
Length of Visible Light
Length of Day
Tomorrow will be .
, % of the Moon is Illuminated

Today's Extremes

State Highs State Lows

Community

WunderPhotos

Upload Photos

1,774,432 photos uploaded!

WunderBlogs® & News

Nearby

Air Quality

  Air Quality AQ Index Pollutant
Not available.

Snow Depth

Station Depth Elevation

Earthquake Activity

City Distance Mag. Time & Date
Minimum magnitude displayed is 2.5.

Coastal Water Temperatures

Place Temperature

Nearby Weather Stations